createdAt,value
2019-01-14T00:00:30.907Z,730
2019-01-14T00:01:33.341Z,730.6
2019-01-14T00:02:35.514Z,730.9
2019-01-14T00:03:37.371Z,730.4
2019-01-14T00:04:39.799Z,730.3
2019-01-14T00:05:42.219Z,731.4
2019-01-14T00:06:44.677Z,731.1
2019-01-14T00:07:47.106Z,731.8
2019-01-14T00:08:49.534Z,730.9
2019-01-14T00:09:51.698Z,731.2
2019-01-14T00:10:54.175Z,731.2
2019-01-14T00:11:56.357Z,731
2019-01-14T00:12:58.782Z,732.7
2019-01-14T00:14:01.223Z,732.4
2019-01-14T00:15:03.658Z,733.5
2019-01-14T00:16:06.075Z,732.6
2019-01-14T00:17:08.502Z,732.8
2019-01-14T00:18:10.674Z,732.7
2019-01-14T00:19:12.826Z,733
2019-01-14T00:20:15.255Z,732.9
2019-01-14T00:21:17.416Z,733
2019-01-14T00:22:19.846Z,732.6
2019-01-14T00:23:22.010Z,732.5
2019-01-14T00:24:24.177Z,731.6
2019-01-14T00:25:26.606Z,732.5
2019-01-14T00:26:29.026Z,732.5
2019-01-14T00:27:31.165Z,733.6
2019-01-14T00:28:33.307Z,732.2
2019-01-14T00:29:35.726Z,731.6
2019-01-14T00:30:37.881Z,731.6
2019-01-14T00:31:40.299Z,731.6
2019-01-14T00:32:42.730Z,732.7
2019-01-14T00:33:44.897Z,732.3
2019-01-14T00:34:47.330Z,731.9
2019-01-14T00:35:49.470Z,732.5
2019-01-14T00:36:51.613Z,731.6
2019-01-14T00:37:54.040Z,731.4
2019-01-14T00:38:56.469Z,731.5
2019-01-14T00:39:58.916Z,731.7
2019-01-14T00:41:01.126Z,730.9
2019-01-14T00:42:03.596Z,730.8
2019-01-14T00:43:06.014Z,729.9
2019-01-14T00:44:07.897Z,729.3
2019-01-14T00:45:10.322Z,729.5
2019-01-14T00:46:12.750Z,728.9
2019-01-14T00:47:15.177Z,729
2019-01-14T00:48:17.330Z,728.7
2019-01-14T00:49:19.492Z,728.4
2019-01-14T00:50:21.914Z,728.3
2019-01-14T00:51:24.344Z,728
2019-01-14T00:52:26.224Z,727.5
2019-01-14T00:53:28.103Z,728
2019-01-14T00:54:30.528Z,726.8
2019-01-14T00:55:32.163Z,727.2
2019-01-14T00:56:34.591Z,726.1
2019-01-14T00:57:36.754Z,726
2019-01-14T00:58:38.902Z,726
2019-01-14T00:59:41.046Z,725.4
2019-01-14T01:00:43.472Z,725.4
2019-01-14T01:01:45.900Z,725.1
2019-01-14T01:02:48.350Z,725.5
2019-01-14T01:03:50.784Z,725.2
2019-01-14T01:04:53.205Z,725.5
2019-01-14T01:05:55.629Z,724.8
2019-01-14T01:06:57.774Z,725
2019-01-14T01:07:59.666Z,724.3
2019-01-14T01:09:02.089Z,724.5
2019-01-14T01:10:04.258Z,723.8
2019-01-14T01:11:06.383Z,724.2
2019-01-14T01:12:08.842Z,723.8
2019-01-14T01:13:10.998Z,724.1
2019-01-14T01:14:13.438Z,724.3
2019-01-14T01:15:15.857Z,724.4
2019-01-14T01:16:18.283Z,723.9
2019-01-14T01:17:20.446Z,722.8
2019-01-14T01:18:22.865Z,723.8
2019-01-14T01:19:24.995Z,723.9
2019-01-14T01:20:27.156Z,724.3
2019-01-14T01:21:29.584Z,723.6
2019-01-14T01:22:31.716Z,723.5
2019-01-14T01:23:33.862Z,723
2019-01-14T01:24:36.284Z,722.8
2019-01-14T01:25:38.710Z,722.7
2019-01-14T01:26:41.137Z,722.2
2019-01-14T01:27:43.559Z,722.2
2019-01-14T01:28:45.987Z,721.5
2019-01-14T01:29:48.144Z,721.4
2019-01-14T01:30:50.573Z,720.8
2019-01-14T01:31:52.450Z,720.6
2019-01-14T01:32:54.606Z,719.9
2019-01-14T01:33:56.735Z,719.6
2019-01-14T01:34:58.889Z,720.9
2019-01-14T01:36:01.322Z,722.1
2019-01-14T01:37:03.494Z,720.7
2019-01-14T01:38:05.928Z,718.9
2019-01-14T01:39:08.370Z,718.4
2019-01-14T01:40:10.836Z,717.7
2019-01-14T01:41:12.984Z,718.1
2019-01-14T01:42:15.412Z,719.4
2019-01-14T01:43:17.572Z,720.4
2019-01-14T01:44:19.724Z,719.1
2019-01-14T01:45:21.619Z,720.5
2019-01-14T01:46:24.054Z,719
2019-01-14T01:47:26.206Z,720.6
2019-01-14T01:48:28.631Z,720.1
2019-01-14T01:49:31.056Z,719.7
2019-01-14T01:50:33.492Z,719.8
2019-01-14T01:51:35.646Z,718.8
2019-01-14T01:52:38.081Z,718.8
2019-01-14T01:53:40.231Z,719.3
2019-01-14T01:54:42.684Z,718.4
2019-01-14T01:55:45.113Z,717.9
2019-01-14T01:56:47.537Z,718.2
2019-01-14T01:57:49.415Z,718.5
2019-01-14T01:58:51.553Z,718.1
2019-01-14T01:59:54.000Z,717.6
2019-01-14T02:00:56.416Z,718
2019-01-14T02:01:58.842Z,717.7
2019-01-14T02:03:00.984Z,717.6
2019-01-14T02:04:03.120Z,717.8
2019-01-14T02:05:05.265Z,718.1
2019-01-14T02:06:07.699Z,717.6
2019-01-14T02:07:10.133Z,717.5
2019-01-14T02:08:12.270Z,718
2019-01-14T02:09:14.704Z,717.3
2019-01-14T02:10:16.844Z,716.6
2019-01-14T02:11:18.444Z,716.5
2019-01-14T02:12:20.870Z,716
2019-01-14T02:13:23.031Z,715.8
2019-01-14T02:14:25.173Z,716
2019-01-14T02:15:27.606Z,715.5
2019-01-14T02:16:29.755Z,715.8
2019-01-14T02:17:32.194Z,715.9
2019-01-14T02:18:34.364Z,715.7
2019-01-14T02:19:36.242Z,715.5
2019-01-14T02:20:38.371Z,715.2
2019-01-14T02:21:40.523Z,715.4
2019-01-14T02:22:42.672Z,715
2019-01-14T02:23:44.560Z,715
2019-01-14T02:24:46.695Z,715.1
2019-01-14T02:25:49.130Z,714.4
2019-01-14T02:26:51.267Z,714.6
2019-01-14T02:27:53.694Z,714.4
2019-01-14T02:28:56.131Z,714.4
2019-01-14T02:29:58.282Z,714.5
2019-01-14T02:31:00.710Z,714.1
2019-01-14T02:32:03.153Z,714
2019-01-14T02:33:05.313Z,714.4
2019-01-14T02:34:07.735Z,714.9
2019-01-14T02:35:09.893Z,714.6
2019-01-14T02:36:12.323Z,713.7
2019-01-14T02:37:14.477Z,714.3
2019-01-14T02:38:16.907Z,714
2019-01-14T02:39:18.864Z,714.1
2019-01-14T02:40:21.285Z,714.2
2019-01-14T02:41:23.713Z,714
2019-01-14T02:42:26.137Z,713.4
2019-01-14T02:43:28.566Z,714.2
2019-01-14T02:44:30.990Z,713.5
2019-01-14T02:45:33.433Z,713.2
2019-01-14T02:46:35.874Z,713.9
2019-01-14T02:47:38.043Z,713.4
2019-01-14T02:48:40.466Z,713.1
2019-01-14T02:49:42.891Z,712.9
2019-01-14T02:50:45.355Z,712.8
2019-01-14T02:51:47.785Z,712.5
2019-01-14T02:52:50.212Z,712.5
2019-01-14T02:53:52.644Z,712.2
2019-01-14T02:54:54.784Z,712.6
2019-01-14T02:55:56.944Z,712.7
2019-01-14T02:56:59.092Z,712.8
2019-01-14T02:58:01.515Z,712.5
2019-01-14T02:59:03.674Z,712.5
2019-01-14T03:00:06.120Z,712.3
2019-01-14T03:01:08.274Z,712.2
2019-01-14T03:02:10.423Z,712.2
2019-01-14T03:03:12.842Z,712.4
2019-01-14T03:04:14.971Z,711.6
2019-01-14T03:05:17.117Z,711.4
2019-01-14T03:06:19.542Z,711.3
2019-01-14T03:07:21.407Z,711
2019-01-14T03:08:23.833Z,710.3
2019-01-14T03:09:26.006Z,710.7
2019-01-14T03:10:28.165Z,710.5
2019-01-14T03:11:30.596Z,710.6
2019-01-14T03:12:33.040Z,710
2019-01-14T03:13:35.175Z,710
2019-01-14T03:14:37.626Z,710.3
2019-01-14T03:15:40.040Z,709.9
2019-01-14T03:16:42.465Z,709.8
2019-01-14T03:17:44.894Z,709.6
2019-01-14T03:18:47.324Z,709.8
2019-01-14T03:19:49.735Z,709.7
2019-01-14T03:20:52.273Z,709.5
2019-01-14T03:21:54.683Z,709.1
2019-01-14T03:22:57.101Z,709
2019-01-14T03:23:59.532Z,708.7
2019-01-14T03:25:02.142Z,708.6
2019-01-14T03:26:04.567Z,708.2
2019-01-14T03:27:06.990Z,708.3
2019-01-14T03:28:09.121Z,708.1
2019-01-14T03:29:11.256Z,707.9
2019-01-14T03:30:13.151Z,707.8
2019-01-14T03:31:15.357Z,708
2019-01-14T03:32:17.532Z,707.8
2019-01-14T03:33:19.678Z,707.5
2019-01-14T03:34:21.832Z,707.9
2019-01-14T03:35:23.994Z,707.3
2019-01-14T03:36:26.436Z,707.4
2019-01-14T03:37:28.280Z,707.9
2019-01-14T03:38:30.708Z,707.8
2019-01-14T03:39:33.145Z,707.4
2019-01-14T03:40:35.569Z,707
2019-01-14T03:41:37.743Z,707.2
2019-01-14T03:42:40.190Z,707.4
2019-01-14T03:43:42.606Z,707.5
2019-01-14T03:44:45.043Z,707.3
2019-01-14T03:45:47.187Z,707.4
2019-01-14T03:46:49.355Z,708.1
2019-01-14T03:47:51.781Z,707.5
2019-01-14T03:48:53.914Z,707.1
2019-01-14T03:49:55.796Z,707
2019-01-14T03:50:57.669Z,707.2
2019-01-14T03:52:00.093Z,707.3
2019-01-14T03:53:02.518Z,707
2019-01-14T03:54:04.676Z,707.2
2019-01-14T03:55:07.101Z,706.9
2019-01-14T03:56:09.271Z,707
2019-01-14T03:57:11.715Z,707.3
2019-01-14T03:58:14.154Z,706.5
2019-01-14T03:59:16.575Z,706.5
2019-01-14T04:00:18.460Z,706.2
2019-01-14T04:01:20.900Z,706.1
2019-01-14T04:02:23.333Z,706.1
2019-01-14T04:03:25.536Z,705.9
2019-01-14T04:04:27.421Z,705.4
2019-01-14T04:05:29.856Z,705.9
2019-01-14T04:06:32.282Z,705
2019-01-14T04:07:34.452Z,705.5
2019-01-14T04:08:36.872Z,705.6
2019-01-14T04:09:39.322Z,705.3
2019-01-14T04:10:41.746Z,705.5
2019-01-14T04:11:43.893Z,705.9
2019-01-14T04:12:46.332Z,705.7
2019-01-14T04:13:48.766Z,705.5
2019-01-14T04:14:51.197Z,705.9
2019-01-14T04:15:53.621Z,705.2
2019-01-14T04:16:55.758Z,705.2
2019-01-14T04:17:57.904Z,705.2
2019-01-14T04:19:00.070Z,705.1
2019-01-14T04:20:02.512Z,705.7
2019-01-14T04:21:04.934Z,704.8
2019-01-14T04:22:07.092Z,704.9
2019-01-14T04:23:09.519Z,704.9
2019-01-14T04:24:11.941Z,705.1
2019-01-14T04:25:14.094Z,705.4
2019-01-14T04:26:16.520Z,705.2
2019-01-14T04:27:18.683Z,705.2
2019-01-14T04:28:20.841Z,705
2019-01-14T04:29:22.984Z,704.4
2019-01-14T04:30:25.448Z,704.3
2019-01-14T04:31:27.630Z,703.5
2019-01-14T04:32:29.774Z,703.9
2019-01-14T04:33:32.203Z,703.6
2019-01-14T04:34:34.685Z,703.4
2019-01-14T04:35:36.839Z,703.2
2019-01-14T04:36:38.965Z,702.8
2019-01-14T04:37:41.385Z,702.6
2019-01-14T04:38:43.813Z,702.4
2019-01-14T04:39:46.239Z,702
2019-01-14T04:40:48.653Z,702
2019-01-14T04:41:50.802Z,701.6
2019-01-14T04:42:53.233Z,701.8
2019-01-14T04:43:55.381Z,701.2
2019-01-14T04:44:57.792Z,701.6
2019-01-14T04:45:59.924Z,701.5
2019-01-14T04:47:02.072Z,701.6
2019-01-14T04:48:04.247Z,701.1
2019-01-14T04:49:06.668Z,701
2019-01-14T04:50:08.803Z,700.8
2019-01-14T04:51:11.231Z,700.7
2019-01-14T04:52:13.380Z,701.3
2019-01-14T04:53:15.800Z,700.3
2019-01-14T04:54:17.966Z,700.7
2019-01-14T04:55:20.407Z,700.6
2019-01-14T04:56:22.556Z,700
2019-01-14T04:57:24.694Z,699.5
2019-01-14T04:58:27.137Z,699.9
2019-01-14T04:59:29.294Z,699.9
2019-01-14T05:00:31.430Z,699.4
2019-01-14T05:01:33.572Z,699.3
2019-01-14T05:02:35.996Z,699.2
2019-01-14T05:03:38.136Z,699.3
2019-01-14T05:04:40.565Z,700
2019-01-14T05:05:43.022Z,698.9
2019-01-14T05:06:45.161Z,698.7
2019-01-14T05:07:47.589Z,698.8
2019-01-14T05:08:50.024Z,698.6
2019-01-14T05:09:52.444Z,698.3
2019-01-14T05:10:54.591Z,698.2
2019-01-14T05:11:57.015Z,697.5
2019-01-14T05:12:58.895Z,697.2
2019-01-14T05:14:01.021Z,697.1
2019-01-14T05:15:03.449Z,696.6
2019-01-14T05:16:05.586Z,697.1
2019-01-14T05:17:08.025Z,696.8
2019-01-14T05:18:10.167Z,696.5
2019-01-14T05:19:12.607Z,696.6
2019-01-14T05:20:15.043Z,696
2019-01-14T05:21:17.213Z,695.6
2019-01-14T05:22:19.090Z,695.8
2019-01-14T05:23:21.250Z,695.6
2019-01-14T05:24:23.671Z,695.6
2019-01-14T05:25:26.094Z,695.4
2019-01-14T05:26:27.958Z,695.6
2019-01-14T05:27:30.374Z,695.2
2019-01-14T05:28:32.242Z,696.1
2019-01-14T05:29:34.415Z,696.2
2019-01-14T05:30:36.846Z,695.8
2019-01-14T05:31:38.989Z,695.2
2019-01-14T05:32:41.419Z,695.2
2019-01-14T05:33:43.571Z,695.1
2019-01-14T05:34:46.003Z,695.6
2019-01-14T05:35:48.431Z,695.3
2019-01-14T05:36:50.859Z,695.1
2019-01-14T05:37:53.282Z,694.6
2019-01-14T05:38:55.440Z,694.7
2019-01-14T05:39:57.311Z,695
2019-01-14T05:40:59.729Z,694.8
2019-01-14T05:42:02.163Z,694.7
2019-01-14T05:43:04.313Z,694.7
2019-01-14T05:44:06.745Z,694.7
2019-01-14T05:45:08.875Z,694.5
2019-01-14T05:46:10.753Z,694.4
2019-01-14T05:47:12.923Z,694.4
2019-01-14T05:48:15.345Z,694
2019-01-14T05:49:17.491Z,694.5
2019-01-14T05:50:19.634Z,694.6
2019-01-14T05:51:22.055Z,694.6
2019-01-14T05:52:24.287Z,694.5
2019-01-14T05:53:26.715Z,694.9
2019-01-14T05:54:29.157Z,694.3
2019-01-14T05:55:31.351Z,694.4
2019-01-14T05:56:33.792Z,694.7
2019-01-14T05:57:36.215Z,694
2019-01-14T05:58:38.363Z,693.8
2019-01-14T05:59:40.233Z,693.6
2019-01-14T06:00:42.106Z,693.2
2019-01-14T06:01:44.549Z,693
2019-01-14T06:02:46.705Z,693.2
2019-01-14T06:03:49.150Z,693.2
2019-01-14T06:04:51.580Z,693.9
2019-01-14T06:05:53.739Z,693.5
2019-01-14T06:06:56.172Z,693.8
2019-01-14T06:07:58.350Z,693.3
2019-01-14T06:09:00.804Z,693.4
2019-01-14T06:10:03.015Z,693.1
2019-01-14T06:11:05.170Z,693.3
2019-01-14T06:12:07.601Z,692.5
2019-01-14T06:13:09.777Z,692.5
2019-01-14T06:14:12.216Z,691.7
2019-01-14T06:15:14.377Z,692.3
2019-01-14T06:16:18.344Z,692.1
2019-01-14T06:17:20.610Z,692.4
2019-01-14T06:18:22.739Z,691.8
2019-01-14T06:19:24.365Z,691.5
2019-01-14T06:20:26.846Z,691.4
2019-01-14T06:21:29.284Z,691
2019-01-14T06:22:31.731Z,691.2
2019-01-14T06:23:34.159Z,691
2019-01-14T06:24:36.592Z,690.9
2019-01-14T06:25:39.025Z,691.3
2019-01-14T06:26:41.469Z,691.2
2019-01-14T06:27:43.931Z,691
2019-01-14T06:28:45.831Z,690.9
2019-01-14T06:29:48.272Z,690.8
2019-01-14T06:30:50.741Z,690.8
2019-01-14T06:31:53.175Z,690.7
2019-01-14T06:32:55.338Z,690.6
2019-01-14T06:33:57.766Z,690.8
2019-01-14T06:35:00.203Z,690.6
2019-01-14T06:36:02.642Z,690.4
2019-01-14T06:37:04.835Z,690.6
2019-01-14T06:38:07.275Z,690.2
2019-01-14T06:39:09.431Z,689.8
2019-01-14T06:40:11.865Z,689.7
2019-01-14T06:41:14.333Z,689.6
2019-01-14T06:42:16.493Z,689.9
2019-01-14T06:43:18.925Z,689.6
2019-01-14T06:44:21.069Z,689.4
2019-01-14T06:45:23.501Z,689.5
2019-01-14T06:46:25.975Z,689.1
2019-01-14T06:47:28.407Z,689
2019-01-14T06:48:32.035Z,689.1
2019-01-14T06:49:34.465Z,688.7
2019-01-14T06:50:36.611Z,688.1
2019-01-14T06:51:39.055Z,688.2
2019-01-14T06:52:41.217Z,687.6
2019-01-14T06:53:43.353Z,687.3
2019-01-14T06:54:45.601Z,686.9
2019-01-14T06:55:48.065Z,687
2019-01-14T06:56:50.515Z,686.2
2019-01-14T06:57:52.729Z,686.5
2019-01-14T06:58:55.158Z,686.5
2019-01-14T06:59:57.595Z,686.5
2019-01-14T07:01:00.022Z,686.5
2019-01-14T07:02:02.166Z,686.2
2019-01-14T07:03:04.604Z,685.9
2019-01-14T07:04:07.035Z,686
2019-01-14T07:05:08.643Z,686
2019-01-14T07:06:10.808Z,685.9
2019-01-14T07:07:13.235Z,685.7
2019-01-14T07:08:15.665Z,685.5
2019-01-14T07:09:17.795Z,684.5
2019-01-14T07:10:20.225Z,684.5
2019-01-14T07:11:22.390Z,685.1
2019-01-14T07:12:24.543Z,685
2019-01-14T07:13:26.704Z,684.7
2019-01-14T07:14:29.151Z,684.7
2019-01-14T07:15:31.295Z,684.4
2019-01-14T07:16:33.480Z,683.9
2019-01-14T07:17:35.912Z,684.3
2019-01-14T07:18:38.066Z,683.5
2019-01-14T07:19:40.202Z,683.2
2019-01-14T07:20:42.648Z,683
2019-01-14T07:21:45.084Z,683
2019-01-14T07:22:47.514Z,682.8
2019-01-14T07:23:49.955Z,683.2
2019-01-14T07:24:52.115Z,683.4
2019-01-14T07:25:54.541Z,683.2
2019-01-14T07:26:56.972Z,683.2
2019-01-14T07:27:59.412Z,682.8
2019-01-14T07:29:01.571Z,682.6
2019-01-14T07:30:03.713Z,682.6
2019-01-14T07:31:05.865Z,683.2
2019-01-14T07:32:08.033Z,682.5
2019-01-14T07:33:10.208Z,682.7
2019-01-14T07:34:12.635Z,682.3
2019-01-14T07:35:15.084Z,681.8
2019-01-14T07:36:16.959Z,682
2019-01-14T07:37:19.118Z,681.9
2019-01-14T07:38:21.559Z,681.8
2019-01-14T07:39:23.991Z,681.3
2019-01-14T07:40:26.344Z,681.5
2019-01-14T07:41:28.488Z,681.3
2019-01-14T07:42:30.632Z,681.5
2019-01-14T07:43:32.833Z,680.8
2019-01-14T07:44:35.280Z,681.3
2019-01-14T07:45:37.141Z,680.9
2019-01-14T07:46:39.576Z,680.9
2019-01-14T07:47:41.732Z,681
2019-01-14T07:48:43.923Z,680.2
2019-01-14T07:49:46.359Z,680.8
2019-01-14T07:50:48.505Z,680.6
2019-01-14T07:51:50.940Z,679.9
2019-01-14T07:52:53.092Z,680.2
2019-01-14T07:53:55.531Z,679.6
2019-01-14T07:54:57.677Z,679.2
2019-01-14T07:56:00.116Z,679.3
2019-01-14T07:57:02.542Z,679.3
2019-01-14T07:58:04.700Z,679.2
2019-01-14T07:59:07.127Z,679.9
2019-01-14T08:00:09.563Z,679.6
2019-01-14T08:01:11.718Z,679.5
2019-01-14T08:02:14.142Z,679.5
2019-01-14T08:03:16.039Z,679.5
2019-01-14T08:04:18.193Z,678.7
2019-01-14T08:05:20.351Z,678.6
2019-01-14T08:06:22.492Z,679
2019-01-14T08:07:24.372Z,678.7
2019-01-14T08:08:26.800Z,678.6
2019-01-14T08:09:28.967Z,678.2
2019-01-14T08:10:31.100Z,677.6
2019-01-14T08:11:33.528Z,677.2
2019-01-14T08:12:35.690Z,677.2
2019-01-14T08:13:37.284Z,677.5
2019-01-14T08:14:42.714Z,677
2019-01-14T08:15:46.657Z,676.9
2019-01-14T08:16:49.095Z,677.6
2019-01-14T08:17:51.526Z,677.1
2019-01-14T08:18:53.437Z,676.8
2019-01-14T08:19:55.311Z,677
2019-01-14T08:20:57.474Z,676.9
2019-01-14T08:21:59.910Z,677
2019-01-14T08:23:02.084Z,676.9
2019-01-14T08:24:04.510Z,676.6
2019-01-14T08:25:06.942Z,676.9
2019-01-14T08:26:09.103Z,676.9
2019-01-14T08:27:11.540Z,676.7
2019-01-14T08:28:13.972Z,676.7
2019-01-14T08:29:16.392Z,676.5
2019-01-14T08:30:18.564Z,675.9
2019-01-14T08:31:20.426Z,676.1
2019-01-14T08:32:22.585Z,675.9
2019-01-14T08:33:24.474Z,676.5
2019-01-14T08:34:26.624Z,675.9
2019-01-14T08:35:29.050Z,676.2
2019-01-14T08:36:30.955Z,675.6
2019-01-14T08:37:33.108Z,675.9
2019-01-14T08:38:35.261Z,676.2
2019-01-14T08:39:37.424Z,675.7
2019-01-14T08:40:39.296Z,675.7
2019-01-14T08:41:41.714Z,675.6
2019-01-14T08:42:44.136Z,674.9
2019-01-14T08:43:46.000Z,674.9
2019-01-14T08:44:48.434Z,674.8
2019-01-14T08:45:50.855Z,675.5
2019-01-14T08:46:53.024Z,674.7
2019-01-14T08:47:55.170Z,674.7
2019-01-14T08:48:57.036Z,674.6
2019-01-14T08:49:59.460Z,674.5
2019-01-14T08:51:01.597Z,674.3
2019-01-14T08:52:04.062Z,674.3
2019-01-14T08:53:06.490Z,673.8
2019-01-14T08:54:08.905Z,673.6
2019-01-14T08:55:11.352Z,673.8
2019-01-14T08:56:13.784Z,673.1
2019-01-14T08:57:16.223Z,672.5
2019-01-14T08:58:18.658Z,672.4
2019-01-14T08:59:21.078Z,672
2019-01-14T09:00:23.521Z,672
2019-01-14T09:01:25.673Z,671.7
2019-01-14T09:02:27.832Z,671.3
2019-01-14T09:03:30.266Z,671.1
2019-01-14T09:04:34.002Z,671.2
2019-01-14T09:05:36.138Z,670.8
2019-01-14T09:06:38.586Z,670.7
2019-01-14T09:07:40.734Z,670.7
2019-01-14T09:08:43.147Z,670.4
2019-01-14T09:09:45.295Z,669.8
2019-01-14T09:10:47.462Z,670.4
2019-01-14T09:11:49.895Z,670.5
2019-01-14T09:12:51.766Z,670.9
2019-01-14T09:13:53.917Z,670.9
2019-01-14T09:14:56.350Z,671
2019-01-14T09:15:58.526Z,670.5
2019-01-14T09:17:00.950Z,671
2019-01-14T09:18:04.955Z,670.5
2019-01-14T09:19:07.422Z,670.8
2019-01-14T09:20:09.567Z,670.5
2019-01-14T09:21:13.005Z,670.7
2019-01-14T09:22:15.457Z,670.7
2019-01-14T09:23:17.351Z,670.9
2019-01-14T09:24:19.781Z,670.6
2019-01-14T09:25:22.205Z,670.5
2019-01-14T09:26:24.338Z,670.3
2019-01-14T09:27:26.502Z,670.1
2019-01-14T09:28:28.654Z,669.8
2019-01-14T09:29:30.827Z,669.6
2019-01-14T09:30:33.275Z,669.8
2019-01-14T09:31:35.702Z,669.3
2019-01-14T09:32:37.590Z,669.6
2019-01-14T09:33:39.470Z,669
2019-01-14T09:34:41.395Z,669.2
2019-01-14T09:35:43.554Z,669.3
2019-01-14T09:36:45.695Z,669.1
2019-01-14T09:37:48.122Z,669.2
2019-01-14T09:38:50.277Z,669.3
2019-01-14T09:39:52.712Z,669.2
2019-01-14T09:40:55.144Z,668.8
2019-01-14T09:41:57.296Z,669.1
2019-01-14T09:42:59.453Z,669.2
2019-01-14T09:44:01.599Z,669.3
2019-01-14T09:45:03.481Z,668.8
2019-01-14T09:46:05.615Z,668.6
2019-01-14T09:47:08.046Z,668.6
2019-01-14T09:48:10.474Z,668.9
2019-01-14T09:49:12.900Z,668.5
2019-01-14T09:50:15.335Z,668.8
2019-01-14T09:51:17.770Z,668.8
2019-01-14T09:52:19.944Z,668.5
2019-01-14T09:53:22.079Z,668.3
2019-01-14T09:54:24.253Z,668.5
2019-01-14T09:55:26.682Z,668.1
2019-01-14T09:56:29.101Z,668
2019-01-14T09:57:31.539Z,668.5
2019-01-14T09:58:33.159Z,668.2
2019-01-14T09:59:35.590Z,668.2
2019-01-14T10:00:37.734Z,669
2019-01-14T10:01:40.170Z,668.8
2019-01-14T10:02:42.038Z,668.9
2019-01-14T10:03:44.495Z,669
2019-01-14T10:04:46.661Z,669
2019-01-14T10:05:49.107Z,668.5
2019-01-14T10:06:50.986Z,669.4
2019-01-14T10:07:53.407Z,669.3
2019-01-14T10:08:55.552Z,669.2
2019-01-14T10:09:57.985Z,669.4
2019-01-14T10:11:00.454Z,669.8
2019-01-14T10:12:02.915Z,669.2
2019-01-14T10:13:05.348Z,669.7
2019-01-14T10:14:07.776Z,669.3
2019-01-14T10:15:09.786Z,669.3
2019-01-14T10:16:11.689Z,669.7
2019-01-14T10:17:13.876Z,669.6
2019-01-14T10:18:15.761Z,668.9
2019-01-14T10:19:18.183Z,669.1
2019-01-14T10:20:20.394Z,669.6
2019-01-14T10:21:22.829Z,669.2
2019-01-14T10:22:25.252Z,669.6
2019-01-14T10:23:27.398Z,669.9
2019-01-14T10:24:29.836Z,669.5
2019-01-14T10:25:32.262Z,670
2019-01-14T10:26:34.684Z,669.8
2019-01-14T10:27:36.557Z,669.8
2019-01-14T10:28:39.016Z,670.2
2019-01-14T10:29:40.904Z,670.3
2019-01-14T10:30:43.028Z,670.3
2019-01-14T10:31:45.444Z,670.9
2019-01-14T10:32:47.883Z,670.3
2019-01-14T10:33:50.324Z,670.3
2019-01-14T10:34:52.752Z,670.3
2019-01-14T10:35:54.898Z,670.8
2019-01-14T10:36:57.054Z,670.6
2019-01-14T10:37:59.488Z,670.5
2019-01-14T10:39:01.922Z,670.6
2019-01-14T10:40:04.087Z,670.5
2019-01-14T10:41:05.968Z,670.8
2019-01-14T10:42:08.136Z,670.7
2019-01-14T10:43:10.573Z,670.9
2019-01-14T10:44:12.735Z,670.6
2019-01-14T10:45:15.157Z,670.5
2019-01-14T10:46:17.332Z,671.2
2019-01-14T10:47:19.488Z,670.8
2019-01-14T10:48:21.340Z,670.8
2019-01-14T10:49:23.790Z,671.4
2019-01-14T10:50:26.219Z,670.8
2019-01-14T10:51:28.096Z,671.3
2019-01-14T10:52:30.543Z,670.1
2019-01-14T10:53:32.961Z,671
2019-01-14T10:54:35.115Z,670.7
2019-01-14T10:55:37.540Z,671.1
2019-01-14T10:57:45.905Z,670.8
2019-01-14T10:58:48.332Z,670.8
2019-01-14T10:59:50.763Z,670.8
2019-01-14T11:00:52.936Z,671
2019-01-14T11:01:54.526Z,671
2019-01-14T11:02:56.417Z,671
2019-01-14T11:03:58.845Z,671.3
2019-01-14T11:05:00.989Z,671.3
2019-01-14T11:06:03.141Z,671.6
2019-01-14T11:07:05.313Z,671.5
2019-01-14T11:08:07.459Z,671.5
2019-01-14T11:09:09.351Z,671.7
2019-01-14T11:10:11.789Z,671.3
2019-01-14T11:11:13.948Z,671
2019-01-14T11:12:16.381Z,671
2019-01-14T11:13:18.814Z,671.3
2019-01-14T11:14:21.263Z,671.6
2019-01-14T11:15:23.421Z,671.8
2019-01-14T11:16:25.863Z,671.9
2019-01-14T11:17:28.295Z,672.1
2019-01-14T11:18:30.725Z,671.5
2019-01-14T11:19:32.879Z,671.6
2019-01-14T11:20:35.319Z,672.3
2019-01-14T11:21:37.751Z,671.7
2019-01-14T11:22:39.928Z,671.5
2019-01-14T11:23:42.353Z,671.8
2019-01-14T11:24:44.785Z,672.2
2019-01-14T11:25:47.216Z,672
2019-01-14T11:26:49.369Z,672.1
2019-01-14T11:27:51.796Z,671.7
2019-01-14T11:28:54.227Z,672.3
2019-01-14T11:29:56.650Z,671.9
2019-01-14T11:30:59.129Z,671.6
2019-01-14T11:32:01.265Z,671.7
2019-01-14T11:33:03.405Z,672.1
2019-01-14T11:34:05.572Z,672.5
2019-01-14T11:35:08.013Z,672.4
2019-01-14T11:36:10.445Z,671.8
2019-01-14T11:37:12.591Z,672.6
2019-01-14T11:38:14.760Z,672.2
2019-01-14T11:39:16.915Z,672.4
2019-01-14T11:40:19.342Z,673
2019-01-14T11:41:21.774Z,672.9
2019-01-14T11:42:24.210Z,673.6
2019-01-14T11:43:26.635Z,673.4
2019-01-14T11:44:29.063Z,673.6
2019-01-14T11:45:31.494Z,673.9
2019-01-14T11:46:33.913Z,673.7
2019-01-14T11:47:36.350Z,673.8
2019-01-14T11:48:38.778Z,673.8
2019-01-14T11:49:41.213Z,674.8
2019-01-14T11:50:43.358Z,674.1
2019-01-14T11:51:45.523Z,674
2019-01-14T11:52:47.372Z,674
2019-01-14T11:53:49.815Z,674.5
2019-01-14T11:54:51.971Z,674.3
2019-01-14T11:55:54.122Z,674.2
2019-01-14T11:56:56.028Z,674.5
2019-01-14T11:57:58.467Z,674.4
2019-01-14T11:59:00.603Z,674.4
2019-01-14T12:00:03.035Z,674.2
2019-01-14T12:01:05.468Z,674.9
2019-01-14T12:02:07.621Z,674.3
2019-01-14T12:03:10.445Z,674.9
2019-01-14T12:04:12.888Z,674.6
2019-01-14T12:05:15.353Z,674.5
2019-01-14T12:06:17.514Z,674.4
2019-01-14T12:07:19.682Z,674.2
2019-01-14T12:08:22.785Z,674.2
2019-01-14T12:09:25.223Z,674.3
2019-01-14T12:10:27.644Z,674.5
2019-01-14T12:11:30.070Z,674.6
2019-01-14T12:12:32.491Z,674.3
2019-01-14T12:13:34.695Z,674.7
2019-01-14T12:14:37.140Z,674.3
2019-01-14T12:15:39.634Z,674
2019-01-14T12:16:41.510Z,675.7
2019-01-14T12:17:43.934Z,674.3
2019-01-14T12:18:46.363Z,674.8
2019-01-14T12:19:48.783Z,674.8
2019-01-14T12:20:51.209Z,674.8
2019-01-14T12:21:53.070Z,674.4
2019-01-14T12:22:55.501Z,675
2019-01-14T12:23:57.939Z,674.5
2019-01-14T12:24:59.815Z,674.6
2019-01-14T12:26:01.969Z,674.3
2019-01-14T12:27:04.416Z,674.6
2019-01-14T12:28:06.835Z,674.3
2019-01-14T12:29:09.263Z,674.6
2019-01-14T12:30:11.689Z,674.1
2019-01-14T12:31:13.860Z,674.6
2019-01-14T12:32:15.755Z,673.9
2019-01-14T12:33:18.215Z,674.3
2019-01-14T12:34:20.665Z,673.8
2019-01-14T12:35:22.801Z,673.7
2019-01-14T12:36:24.951Z,674.1
2019-01-14T12:37:27.120Z,674.2
2019-01-14T12:38:29.557Z,674.1
2019-01-14T12:39:31.974Z,674
2019-01-14T12:40:34.396Z,673.9
2019-01-14T12:41:36.549Z,674
2019-01-14T12:42:38.754Z,674.1
2019-01-14T12:43:41.183Z,674.7
2019-01-14T12:44:43.323Z,675.2
2019-01-14T12:45:45.491Z,674.3
2019-01-14T12:46:47.658Z,674.3
2019-01-14T12:47:50.082Z,674.1
2019-01-14T12:48:52.271Z,673.7
2019-01-14T12:49:54.450Z,673.4
2019-01-14T12:50:56.890Z,673.5
2019-01-14T12:51:59.328Z,673.4
2019-01-14T12:53:01.781Z,673.7
2019-01-14T12:54:03.686Z,673.8
2019-01-14T12:55:06.119Z,673.7
2019-01-14T12:56:08.556Z,673.6
2019-01-14T12:57:10.979Z,674.2
2019-01-14T12:58:13.155Z,673.9
2019-01-14T12:59:15.291Z,673.6
2019-01-14T13:00:17.462Z,673.1
2019-01-14T13:01:19.353Z,673.7
2019-01-14T13:02:21.785Z,673.4
2019-01-14T13:03:23.396Z,673.6
2019-01-14T13:04:25.521Z,673.7
2019-01-14T13:05:27.952Z,673.2
2019-01-14T13:06:30.090Z,674.5
2019-01-14T13:07:32.526Z,674.8
2019-01-14T13:08:34.963Z,674.4
2019-01-14T13:09:38.498Z,675.5
2019-01-14T13:10:40.705Z,675.4
2019-01-14T13:11:43.124Z,675.5
2019-01-14T13:12:44.985Z,675.6
2019-01-14T13:13:47.424Z,675
2019-01-14T13:14:49.573Z,674.9
2019-01-14T13:15:51.743Z,675.4
2019-01-14T13:16:54.176Z,675.3
2019-01-14T13:17:56.313Z,674.6
2019-01-14T13:18:58.493Z,673.9
2019-01-14T13:20:00.913Z,674.6
2019-01-14T13:21:03.334Z,673.7
2019-01-14T13:22:05.209Z,673.5
2019-01-14T13:23:07.374Z,674
2019-01-14T13:24:09.810Z,673.7
2019-01-14T13:25:11.965Z,673.8
2019-01-14T13:26:14.139Z,673.4
2019-01-14T13:27:16.566Z,673.4
2019-01-14T13:28:18.994Z,674
2019-01-14T13:29:21.157Z,673